createdAt,value
2023-03-31T00:02:07.357Z,15.82
2023-03-31T00:04:34.266Z,15.92
2023-03-31T00:07:00.967Z,15.85
2023-03-31T00:09:29.884Z,15.87
2023-03-31T00:11:56.771Z,15.81
2023-03-31T00:14:23.465Z,16.01
2023-03-31T00:16:50.531Z,15.81
2023-03-31T00:19:20.595Z,15.74
2023-03-31T00:21:48.725Z,15.73
2023-03-31T00:24:16.377Z,15.44
2023-03-31T00:26:43.881Z,15.30
2023-03-31T00:29:13.269Z,15.19
2023-03-31T00:31:40.040Z,14.98
2023-03-31T00:34:07.713Z,15.18
2023-03-31T00:36:36.781Z,15.10
2023-03-31T00:39:15.030Z,15.20
2023-03-31T00:41:42.307Z,15.13
2023-03-31T00:44:24.362Z,15.04
2023-03-31T00:47:02.219Z,15.14
2023-03-31T00:49:38.018Z,15.06
2023-03-31T00:52:10.700Z,15.05
2023-03-31T00:54:39.308Z,14.92
2023-03-31T00:57:07.959Z,14.95
2023-03-31T00:59:38.729Z,15.14
2023-03-31T01:02:05.702Z,14.75
2023-03-31T01:04:37.256Z,14.39
2023-03-31T01:07:13.653Z,14.28
2023-03-31T01:09:41.948Z,14.48
2023-03-31T01:12:10.991Z,14.10
2023-03-31T01:14:37.834Z,14.17
2023-03-31T01:17:09.618Z,14.42
2023-03-31T01:20:16.033Z,14.02
2023-03-31T01:23:27.067Z,14.23
2023-03-31T01:26:12.564Z,14.34
2023-03-31T01:28:54.415Z,14.04
2023-03-31T01:31:44.017Z,14.28
2023-03-31T01:34:42.870Z,14.39
2023-03-31T01:37:30.657Z,14.73
2023-03-31T01:40:21.514Z,14.69
2023-03-31T01:43:06.331Z,14.71
2023-03-31T01:45:54.698Z,14.99
2023-03-31T01:48:39.215Z,15.07
2023-03-31T01:51:09.671Z,14.75
2023-03-31T01:53:43.611Z,14.84
2023-03-31T01:56:30.392Z,14.74
2023-03-31T01:59:11.828Z,14.41
2023-03-31T02:02:23.386Z,14.98
2023-03-31T02:04:59.146Z,15.12
2023-03-31T02:07:34.242Z,15.19
2023-03-31T02:10:07.173Z,14.61
2023-03-31T02:12:37.823Z,14.96
2023-03-31T02:15:09.568Z,14.98
2023-03-31T02:17:40.426Z,15.16
2023-03-31T02:20:12.329Z,15.20
2023-03-31T02:22:41.591Z,15.18
2023-03-31T02:25:11.710Z,15.18
2023-03-31T02:27:42.242Z,15.23
2023-03-31T02:30:10.944Z,15.25
2023-03-31T02:32:40.492Z,15.30
2023-03-31T02:35:14.950Z,15.32
2023-03-31T02:37:43.359Z,14.98
2023-03-31T02:40:22.888Z,15.13
2023-03-31T02:42:49.828Z,15.01
2023-03-31T02:45:41.739Z,14.99
2023-03-31T02:48:18.800Z,15.03
2023-03-31T02:51:01.785Z,15.02
2023-03-31T02:53:46.846Z,14.96
2023-03-31T02:56:44.232Z,14.96
2023-03-31T02:59:29.316Z,14.99
2023-03-31T03:02:15.308Z,15.00
2023-03-31T03:04:43.219Z,14.99
2023-03-31T03:07:31.332Z,14.92
2023-03-31T03:10:13.970Z,14.97
2023-03-31T03:13:01.989Z,14.86
2023-03-31T03:15:54.605Z,14.92
2023-03-31T03:18:21.288Z,14.92
2023-03-31T03:20:49.312Z,14.83
2023-03-31T03:23:17.050Z,14.77
2023-03-31T03:25:44.314Z,14.96
2023-03-31T03:28:11.074Z,14.84
2023-03-31T03:30:37.850Z,14.79
2023-03-31T03:33:06.410Z,14.77
2023-03-31T03:35:34.038Z,14.76
2023-03-31T03:38:00.811Z,14.83
2023-03-31T03:40:27.451Z,14.71
2023-03-31T03:42:54.114Z,14.68
2023-03-31T03:45:20.768Z,14.75
2023-03-31T03:47:47.387Z,14.81
2023-03-31T03:50:15.996Z,14.65
2023-03-31T03:52:43.305Z,14.74
2023-03-31T03:55:11.925Z,14.69
2023-03-31T03:57:38.587Z,14.59
2023-03-31T04:00:12.343Z,14.62
2023-03-31T04:02:39.926Z,14.61
2023-03-31T04:05:07.038Z,14.58
2023-03-31T04:07:33.720Z,14.64
2023-03-31T04:10:00.744Z,14.62
2023-03-31T04:12:27.406Z,14.59
2023-03-31T04:14:54.105Z,14.52
2023-03-31T04:17:33.062Z,14.38
2023-03-31T04:20:09.365Z,14.40
2023-03-31T04:22:40.903Z,14.53
2023-03-31T04:25:10.596Z,14.43
2023-03-31T04:27:37.256Z,14.57
2023-03-31T04:30:04.181Z,14.54
2023-03-31T04:32:32.890Z,14.43
2023-03-31T04:35:06.594Z,14.34
2023-03-31T04:37:34.853Z,14.43
2023-03-31T04:40:10.765Z,14.50
2023-03-31T04:42:37.436Z,14.47
2023-03-31T04:45:04.546Z,14.10
2023-03-31T04:47:31.292Z,14.32
2023-03-31T04:49:58.019Z,14.46
2023-03-31T04:52:24.744Z,14.23
2023-03-31T04:54:51.442Z,13.90
2023-03-31T04:57:18.167Z,14.20
2023-03-31T04:59:44.883Z,14.06
2023-03-31T05:02:11.757Z,13.75
2023-03-31T05:04:38.840Z,13.90
2023-03-31T05:07:05.522Z,13.86
2023-03-31T05:09:33.511Z,13.79
2023-03-31T05:12:01.488Z,13.93
2023-03-31T05:14:28.151Z,13.90
2023-03-31T05:16:58.009Z,13.94
2023-03-31T05:19:24.916Z,14.08
2023-03-31T05:21:51.595Z,14.12
2023-03-31T05:24:18.309Z,14.13
2023-03-31T05:26:52.552Z,14.15
2023-03-31T05:29:19.581Z,14.07
2023-03-31T05:31:46.399Z,14.19
2023-03-31T05:34:14.206Z,14.19
2023-03-31T05:36:40.991Z,13.92
2023-03-31T05:39:08.714Z,14.18
2023-03-31T05:41:35.605Z,14.13
2023-03-31T05:44:02.326Z,13.94
2023-03-31T05:46:28.992Z,14.16
2023-03-31T05:48:56.557Z,14.21
2023-03-31T05:51:23.336Z,14.15
2023-03-31T05:53:50.596Z,14.06
2023-03-31T05:56:17.465Z,14.06
2023-03-31T05:58:44.131Z,14.18
2023-03-31T06:01:19.755Z,14.13
2023-03-31T06:03:47.162Z,13.92
2023-03-31T06:06:14.966Z,14.02
2023-03-31T06:08:43.028Z,14.28
2023-03-31T06:11:12.435Z,14.32
2023-03-31T06:13:39.900Z,14.26
2023-03-31T06:16:07.271Z,14.64
2023-03-31T06:18:36.460Z,14.54
2023-03-31T06:21:03.774Z,14.71
2023-03-31T06:23:31.266Z,14.19
2023-03-31T06:26:04.422Z,14.21
2023-03-31T06:28:31.235Z,14.31
2023-03-31T06:31:07.104Z,14.36
2023-03-31T06:33:34.861Z,14.74
2023-03-31T06:36:04.316Z,14.62
2023-03-31T06:38:32.063Z,14.60
2023-03-31T06:40:59.822Z,14.44
2023-03-31T06:43:26.961Z,14.60
2023-03-31T06:45:54.941Z,14.18
2023-03-31T06:48:23.114Z,14.17
2023-03-31T06:50:50.252Z,14.49
2023-03-31T06:53:17.020Z,14.17
2023-03-31T06:55:43.698Z,14.19
2023-03-31T06:58:11.877Z,14.45
2023-03-31T07:00:38.555Z,14.39
2023-03-31T07:03:06.707Z,14.63
2023-03-31T07:05:33.395Z,14.74
2023-03-31T07:08:00.715Z,14.86
2023-03-31T07:10:29.637Z,14.74
2023-03-31T07:12:56.453Z,15.25
2023-03-31T07:15:23.379Z,14.79
2023-03-31T07:17:54.025Z,15.18
2023-03-31T07:20:21.184Z,15.00
2023-03-31T07:22:48.760Z,14.97
2023-03-31T07:25:17.369Z,14.75
2023-03-31T07:27:44.379Z,15.19
2023-03-31T07:30:17.374Z,15.07
2023-03-31T07:32:47.429Z,14.79
2023-03-31T07:35:14.115Z,15.60
2023-03-31T07:37:43.538Z,16.00
2023-03-31T07:40:21.678Z,16.24
2023-03-31T07:42:49.402Z,15.50
2023-03-31T07:45:16.906Z,15.62
2023-03-31T07:47:46.506Z,15.55
2023-03-31T07:50:14.824Z,14.90
2023-03-31T07:52:42.994Z,15.19
2023-03-31T07:55:10.901Z,14.89
2023-03-31T07:57:37.967Z,15.02
2023-03-31T08:00:08.304Z,15.32
2023-03-31T08:02:43.927Z,15.30
2023-03-31T08:05:12.668Z,14.95
2023-03-31T08:07:41.691Z,14.83
2023-03-31T08:10:12.602Z,15.30
2023-03-31T08:12:39.276Z,14.66
2023-03-31T08:15:06.594Z,13.60
2023-03-31T08:17:33.380Z,13.45
2023-03-31T08:20:03.722Z,12.86
2023-03-31T08:22:33.091Z,12.80
2023-03-31T08:25:03.871Z,12.76
2023-03-31T08:27:39.460Z,12.67
2023-03-31T08:30:08.673Z,12.96
2023-03-31T08:32:36.074Z,12.90
2023-03-31T08:35:03.788Z,12.99
2023-03-31T08:37:31.560Z,12.93
2023-03-31T08:39:58.644Z,12.85
2023-03-31T08:42:37.291Z,12.86
2023-03-31T08:45:28.799Z,13.29
2023-03-31T08:48:00.945Z,13.59
2023-03-31T08:50:32.019Z,14.26
2023-03-31T08:53:12.913Z,15.38
2023-03-31T08:55:51.535Z,15.89
2023-03-31T08:58:21.164Z,15.80
2023-03-31T09:01:06.902Z,15.11
2023-03-31T09:04:07.173Z,14.71
2023-03-31T09:06:39.787Z,14.70
2023-03-31T09:09:11.380Z,15.00
2023-03-31T09:11:58.115Z,14.54
2023-03-31T09:14:27.914Z,14.76
2023-03-31T09:17:08.275Z,15.09
2023-03-31T09:19:59.913Z,14.73
2023-03-31T09:22:33.018Z,14.54
2023-03-31T09:25:12.463Z,14.97
2023-03-31T09:27:42.599Z,15.03
2023-03-31T09:30:27.243Z,15.35
2023-03-31T09:33:12.303Z,15.45
2023-03-31T09:35:39.146Z,15.24
2023-03-31T09:38:05.894Z,15.05
2023-03-31T09:40:34.216Z,14.97
2023-03-31T09:43:08.285Z,15.22
2023-03-31T09:45:35.783Z,15.49
2023-03-31T09:48:07.652Z,15.72
2023-03-31T09:50:43.333Z,15.72
2023-03-31T09:53:18.112Z,16.71
2023-03-31T09:55:50.655Z,17.37
2023-03-31T09:58:17.659Z,17.00
2023-03-31T10:00:59.160Z,17.11
2023-03-31T10:03:29.489Z,17.04
2023-03-31T10:05:58.953Z,16.99
2023-03-31T10:08:33.921Z,17.13
2023-03-31T10:11:03.840Z,16.91
2023-03-31T10:13:58.628Z,17.07
2023-03-31T10:16:30.294Z,17.35
2023-03-31T10:19:31.808Z,17.40
2023-03-31T10:22:02.817Z,17.16
2023-03-31T10:24:38.572Z,16.83
2023-03-31T10:27:12.500Z,16.82
2023-03-31T10:29:39.225Z,16.53
2023-03-31T10:32:23.066Z,16.26
2023-03-31T10:34:50.468Z,16.90
2023-03-31T10:37:24.073Z,17.23
2023-03-31T10:39:59.860Z,18.24
2023-03-31T10:42:27.961Z,18.05
2023-03-31T10:45:35.601Z,19.57
2023-03-31T10:48:03.985Z,21.49
2023-03-31T10:50:36.178Z,20.07
2023-03-31T10:53:11.928Z,20.00
2023-03-31T10:56:04.021Z,19.71
2023-03-31T10:58:30.644Z,21.07
2023-03-31T11:01:12.315Z,21.05
2023-03-31T11:04:00.545Z,20.88
2023-03-31T11:06:48.053Z,20.38
2023-03-31T11:09:50.479Z,19.27
2023-03-31T11:12:34.287Z,20.51
2023-03-31T11:15:17.729Z,20.41
2023-03-31T11:18:00.491Z,19.73
2023-03-31T11:20:46.021Z,21.07
2023-03-31T11:23:42.956Z,19.54
2023-03-31T11:26:12.563Z,18.61
2023-03-31T11:29:02.329Z,18.83
2023-03-31T11:31:50.081Z,17.96
2023-03-31T11:34:45.834Z,18.27
2023-03-31T11:37:53.705Z,18.10
2023-03-31T11:40:58.621Z,18.12
2023-03-31T11:43:42.782Z,17.48
2023-03-31T11:46:33.238Z,17.76
2023-03-31T11:49:04.572Z,17.67
2023-03-31T11:51:40.746Z,17.87
2023-03-31T11:54:18.172Z,17.76
2023-03-31T11:56:45.617Z,16.46
2023-03-31T11:59:18.091Z,16.67
2023-03-31T12:02:02.924Z,16.97
2023-03-31T12:04:43.180Z,16.24
2023-03-31T12:07:36.401Z,16.60
2023-03-31T12:10:20.758Z,16.56
2023-03-31T12:12:55.346Z,16.57
2023-03-31T12:15:30.397Z,16.44
2023-03-31T12:18:09.767Z,16.07
2023-03-31T12:20:41.196Z,15.82
2023-03-31T12:23:20.392Z,17.07
2023-03-31T12:26:03.953Z,16.97
2023-03-31T12:28:33.634Z,16.74
2023-03-31T12:31:02.622Z,16.67
2023-03-31T12:33:34.445Z,16.07
2023-03-31T12:36:32.213Z,16.02
2023-03-31T12:39:08.757Z,15.85
2023-03-31T12:42:12.731Z,15.75
2023-03-31T12:45:27.099Z,15.62
2023-03-31T12:48:25.712Z,15.18
2023-03-31T12:51:06.303Z,16.65
2023-03-31T12:53:48.158Z,17.63
2023-03-31T12:56:14.847Z,17.71
2023-03-31T12:58:44.855Z,18.08
2023-03-31T13:01:17.780Z,18.41
2023-03-31T13:03:47.743Z,18.68
2023-03-31T13:06:29.859Z,18.33
2023-03-31T13:09:52.861Z,18.26
2023-03-31T13:12:22.602Z,18.06
2023-03-31T13:14:54.287Z,17.47
2023-03-31T13:17:24.131Z,17.36
2023-03-31T13:19:52.237Z,17.88
2023-03-31T13:22:36.184Z,17.27
2023-03-31T13:25:31.302Z,17.66
2023-03-31T13:28:04.328Z,17.32
2023-03-31T13:30:37.157Z,17.46
2023-03-31T13:33:24.271Z,17.47
2023-03-31T13:36:26.692Z,17.59
2023-03-31T13:38:56.124Z,18.01
2023-03-31T13:41:49.009Z,17.55
2023-03-31T13:44:38.390Z,17.83
2023-03-31T13:47:30.130Z,17.88
2023-03-31T13:50:21.483Z,17.91
2023-03-31T13:53:07.944Z,18.13
2023-03-31T13:55:58.194Z,18.18
2023-03-31T13:58:35.500Z,18.25
2023-03-31T14:01:20.773Z,18.11
2023-03-31T14:04:02.759Z,18.00
2023-03-31T14:06:41.217Z,18.03
2023-03-31T14:09:11.945Z,17.96
2023-03-31T14:11:38.638Z,17.48
2023-03-31T14:14:16.297Z,17.92
2023-03-31T14:16:56.925Z,17.64
2023-03-31T14:19:29.627Z,17.54
2023-03-31T14:22:21.555Z,17.55
2023-03-31T14:25:06.515Z,17.62
2023-03-31T14:27:43.599Z,16.88
2023-03-31T14:30:43.079Z,17.42
2023-03-31T14:33:18.876Z,17.22
2023-03-31T14:36:02.012Z,16.82
2023-03-31T14:38:29.996Z,17.06
2023-03-31T14:41:00.831Z,17.15
2023-03-31T14:43:36.817Z,16.87
2023-03-31T14:46:05.909Z,17.06
2023-03-31T14:48:45.928Z,16.35
2023-03-31T14:51:16.061Z,16.53
2023-03-31T14:53:45.522Z,16.48
2023-03-31T14:56:17.019Z,16.65
2023-03-31T14:58:49.158Z,16.59
2023-03-31T15:01:21.188Z,16.68
2023-03-31T15:03:48.096Z,16.71
2023-03-31T15:06:16.378Z,16.76
2023-03-31T15:08:43.402Z,16.26
2023-03-31T15:11:18.618Z,16.58
2023-03-31T15:13:57.215Z,16.58
2023-03-31T15:16:41.543Z,16.57
2023-03-31T15:19:15.528Z,16.36
2023-03-31T15:21:42.865Z,16.47
2023-03-31T15:24:13.012Z,16.58
2023-03-31T15:26:47.379Z,16.69
2023-03-31T15:29:22.119Z,16.47
2023-03-31T15:31:49.444Z,16.46
2023-03-31T15:34:28.256Z,16.87
2023-03-31T15:36:56.664Z,16.24
2023-03-31T15:39:26.421Z,15.98
2023-03-31T15:41:54.080Z,16.37
2023-03-31T15:44:38.329Z,16.16
2023-03-31T15:47:29.365Z,15.86
2023-03-31T15:50:08.014Z,16.26
2023-03-31T15:52:36.741Z,16.12
2023-03-31T15:55:23.436Z,15.58
2023-03-31T15:57:51.329Z,15.59
2023-03-31T16:00:33.435Z,15.58
2023-03-31T16:03:01.874Z,15.65
2023-03-31T16:05:53.651Z,15.25
2023-03-31T16:08:44.799Z,15.72
2023-03-31T16:11:17.947Z,15.43
2023-03-31T16:13:51.592Z,15.36
2023-03-31T16:16:22.224Z,15.07
2023-03-31T16:18:53.306Z,15.01
2023-03-31T16:21:27.346Z,15.26
2023-03-31T16:23:59.234Z,15.13
2023-03-31T16:26:27.954Z,15.10
2023-03-31T16:28:57.441Z,14.95
2023-03-31T16:31:28.659Z,15.03
2023-03-31T16:33:57.111Z,15.06
2023-03-31T16:36:23.844Z,15.07
2023-03-31T16:38:54.763Z,14.94
2023-03-31T16:41:23.422Z,14.88
2023-03-31T16:43:54.707Z,14.84
2023-03-31T16:46:23.045Z,14.89
2023-03-31T16:48:50.249Z,15.11
2023-03-31T16:51:17.803Z,15.11
2023-03-31T16:53:46.104Z,14.76
2023-03-31T16:56:13.779Z,14.81
2023-03-31T16:58:41.480Z,14.90
2023-03-31T17:01:09.907Z,14.83
2023-03-31T17:03:38.379Z,14.71
2023-03-31T17:06:08.225Z,15.07
2023-03-31T17:08:34.936Z,14.94
2023-03-31T17:11:04.122Z,14.89
2023-03-31T17:13:32.539Z,14.50
2023-03-31T17:16:15.285Z,14.82
2023-03-31T17:18:44.597Z,15.19
2023-03-31T17:21:13.773Z,15.53
2023-03-31T17:23:41.418Z,15.07
2023-03-31T17:26:10.590Z,14.84
2023-03-31T17:28:37.697Z,14.76
2023-03-31T17:31:19.196Z,14.33
2023-03-31T17:33:47.344Z,14.23
2023-03-31T17:36:15.565Z,14.61
2023-03-31T17:38:42.756Z,14.41
2023-03-31T17:41:12.857Z,13.76
2023-03-31T17:43:40.081Z,13.74
2023-03-31T17:46:12.602Z,13.95
2023-03-31T17:48:39.934Z,13.71
2023-03-31T17:51:09.417Z,13.53
2023-03-31T17:53:36.776Z,12.69
2023-03-31T17:56:04.594Z,12.75
2023-03-31T17:58:32.275Z,13.08
2023-03-31T18:00:59.376Z,13.07
2023-03-31T18:03:29.349Z,12.72
2023-03-31T18:05:56.664Z,12.63
2023-03-31T18:08:23.326Z,12.52
2023-03-31T18:10:50.553Z,12.52
2023-03-31T18:13:17.412Z,12.67
2023-03-31T18:15:51.461Z,12.72
2023-03-31T18:18:19.149Z,12.76
2023-03-31T18:20:45.994Z,12.65
2023-03-31T18:23:13.074Z,12.82
2023-03-31T18:25:43.910Z,12.96
2023-03-31T18:28:11.011Z,12.93
2023-03-31T18:30:38.256Z,12.73
2023-03-31T18:33:05.761Z,12.77
2023-03-31T18:35:33.251Z,12.73
2023-03-31T18:37:59.982Z,12.97
2023-03-31T18:40:27.305Z,12.73
2023-03-31T18:42:53.945Z,13.07
2023-03-31T18:45:20.623Z,13.27
2023-03-31T18:47:47.582Z,13.13
2023-03-31T18:50:15.215Z,13.06
2023-03-31T18:52:41.940Z,13.03
2023-03-31T18:55:09.137Z,12.72
2023-03-31T18:57:35.774Z,12.95
2023-03-31T19:00:03.059Z,12.88
2023-03-31T19:02:30.006Z,12.81
2023-03-31T19:04:56.647Z,13.08
2023-03-31T19:07:23.256Z,13.01
2023-03-31T19:09:49.914Z,13.20
2023-03-31T19:12:16.605Z,12.77
2023-03-31T19:14:43.978Z,13.09
2023-03-31T19:17:11.643Z,12.79
2023-03-31T19:19:38.290Z,13.04
2023-03-31T19:22:05.169Z,12.92
2023-03-31T19:24:31.799Z,13.32
2023-03-31T19:26:58.526Z,13.01
2023-03-31T19:29:27.364Z,12.75
2023-03-31T19:31:54.093Z,12.83
2023-03-31T19:34:21.091Z,13.09
2023-03-31T19:36:47.900Z,13.04
2023-03-31T19:39:14.604Z,13.08
2023-03-31T19:41:41.262Z,13.06
2023-03-31T19:44:07.881Z,13.20
2023-03-31T19:46:34.564Z,13.10
2023-03-31T19:49:01.391Z,12.87
2023-03-31T19:51:28.166Z,12.66
2023-03-31T19:53:54.912Z,12.76
2023-03-31T19:56:25.067Z,13.07
2023-03-31T19:58:52.457Z,13.23
2023-03-31T20:01:24.833Z,13.02
2023-03-31T20:03:55.896Z,12.93
2023-03-31T20:06:25.527Z,12.92
2023-03-31T20:08:54.628Z,12.67
2023-03-31T20:11:22.225Z,12.75
2023-03-31T20:13:49.095Z,12.92
2023-03-31T20:16:19.040Z,12.80
2023-03-31T20:18:56.602Z,12.88
2023-03-31T20:21:26.269Z,12.66
2023-03-31T20:23:53.383Z,12.61
2023-03-31T20:26:23.789Z,12.71
2023-03-31T20:28:51.829Z,13.09
2023-03-31T20:31:21.060Z,12.54
2023-03-31T20:33:48.364Z,12.91
2023-03-31T20:36:18.114Z,12.72
2023-03-31T20:38:46.858Z,12.66
2023-03-31T20:41:15.542Z,12.64
2023-03-31T20:43:42.240Z,12.84
2023-03-31T20:46:10.259Z,13.08
2023-03-31T20:48:48.535Z,12.70
2023-03-31T20:51:17.426Z,12.83
2023-03-31T20:53:46.652Z,12.65
2023-03-31T20:56:16.750Z,12.70
2023-03-31T20:58:44.400Z,12.52
2023-03-31T21:01:12.973Z,12.61
2023-03-31T21:03:40.779Z,12.49
2023-03-31T21:06:11.662Z,12.42
2023-03-31T21:08:42.932Z,12.76
2023-03-31T21:11:09.940Z,12.74
2023-03-31T21:13:37.160Z,12.92
2023-03-31T21:16:04.837Z,12.57
2023-03-31T21:18:33.804Z,12.50
2023-03-31T21:21:02.750Z,12.39
2023-03-31T21:23:30.578Z,12.39
2023-03-31T21:26:01.686Z,12.41
2023-03-31T21:28:31.455Z,12.50
2023-03-31T21:31:18.735Z,12.31
2023-03-31T21:33:47.423Z,12.39
2023-03-31T21:36:17.729Z,12.31
2023-03-31T21:38:45.543Z,12.57
2023-03-31T21:41:30.583Z,12.38
2023-03-31T21:44:00.853Z,12.36
2023-03-31T21:46:30.561Z,12.09
2023-03-31T21:48:57.604Z,12.26
2023-03-31T21:51:25.031Z,12.17
2023-03-31T21:53:55.392Z,12.16
2023-03-31T21:56:24.418Z,12.25
2023-03-31T21:58:51.734Z,12.45
2023-03-31T22:01:19.248Z,12.27
2023-03-31T22:03:46.236Z,12.21
2023-03-31T22:06:13.160Z,12.15
2023-03-31T22:08:41.221Z,12.46
2023-03-31T22:11:09.873Z,12.21
2023-03-31T22:13:37.214Z,12.03
2023-03-31T22:16:05.392Z,12.12
2023-03-31T22:18:32.191Z,12.21
2023-03-31T22:20:59.135Z,12.14
2023-03-31T22:23:27.445Z,12.12
2023-03-31T22:25:54.516Z,12.24
2023-03-31T22:28:21.245Z,12.17
2023-03-31T22:30:47.966Z,12.07
2023-03-31T22:33:14.661Z,12.15
2023-03-31T22:35:41.462Z,12.08
2023-03-31T22:38:08.734Z,12.38
2023-03-31T22:40:36.238Z,12.40
2023-03-31T22:43:03.121Z,12.31
2023-03-31T22:45:29.904Z,12.24
2023-03-31T22:47:56.960Z,12.32
2023-03-31T22:50:24.300Z,11.97
2023-03-31T22:52:51.038Z,11.97
2023-03-31T22:55:17.868Z,12.02
2023-03-31T22:57:44.885Z,11.95
2023-03-31T23:00:12.677Z,12.04
2023-03-31T23:02:39.788Z,12.22
2023-03-31T23:05:07.219Z,11.99
2023-03-31T23:07:33.893Z,12.28
2023-03-31T23:10:00.600Z,12.12
2023-03-31T23:12:28.187Z,12.09
2023-03-31T23:14:55.296Z,12.34
2023-03-31T23:17:21.979Z,12.17
2023-03-31T23:19:49.263Z,12.21
2023-03-31T23:22:16.058Z,12.06
2023-03-31T23:24:42.742Z,12.25
2023-03-31T23:27:09.516Z,12.05
2023-03-31T23:29:36.615Z,12.05
2023-03-31T23:32:03.624Z,12.17
2023-03-31T23:34:30.484Z,12.41
2023-03-31T23:36:57.279Z,12.46
2023-03-31T23:39:24.080Z,12.43
2023-03-31T23:41:51.114Z,12.24
2023-03-31T23:44:18.050Z,12.17
2023-03-31T23:46:45.034Z,12.06
2023-03-31T23:49:11.883Z,11.94
2023-03-31T23:51:38.658Z,12.07
2023-03-31T23:54:05.305Z,12.04
2023-03-31T23:56:32.046Z,12.20
2023-03-31T23:58:58.976Z,12.29
